Scroll down
FLIGHT INFORMATION
American Airlines

AAL1969

At Arrival Gate

KPHX
 KORD
DATE: 2021-07-11
GATE: A11
GATE DEPARTURE: 18:25
TAKEOFF: 18:37
DATE: 2021-07-11
GATE:  -
LANDING: 21:38
GATE ARRIVAL: 21:43
FLIGHT DATA
Crew: 
Speed: 
504 kts
Altitude: 
41,036 ft
Stage Length: 
1,249.1 nm
Block Time: 
3.3 hrs
Flight Time: 
3 hrs
Fuel Used: 
43,818 lb
Cleared Route: KPHX SPRKY GOALY POCCK MRBIL YOTES JARPA MYRRS SAAYY BENNR JBAGS BHAWK STNLE CUUPP CHMPN CLSBY FYTTE MOTRR COGSS MADII SOOLU KURKK VULCN HIMGO RRUDA RW10C
TRACK DATA
50,000 ft 1,000 kts
AIRCRAFT INFO AND CUMULATIVE STATS
Aircraft Type: 
B772
Registration: 
SELCAL: 
ABGK
MSN/LN: 
30254 / 289
Operator: 
Total Flights: 
6
Total Block Time: 
28.6 hrs
Total Flight Time: 
27.1 hrs
Total Fuel Used: 
393,265 lb
DATALINK LOG | Newest first | Current as of: 2022-09-27 07:56:58
LABEL SEQUENCE CONTENT Dn/Up
QD445721:43 21▼ Dn
QC395321:38▼ Dn
2U0950KORD 112051Z 05011KT 10SM FEW018 SCT030 OVC043 21/17 A2997 RMK AO2 RAB03E46 SLP147 P0000 60002 T02060167 53002▲ Up
2S1028KORD▼ Dn
QB390918:37▼ Dn
QA265918:25 64.9▼ Dn
5U0935KORD 112209Z 06012KT 10SM VCSH SCT015 OVC035 20/17 A2996▲ Up
2U0932KPHX 111751Z 00000KT 10SM CLR 37/17 A2984 RMK AO2 SLP084 T03720167 10378 20294 58009▲ Up
5S0945KORD▼ Dn
2S0945KPHX▼ Dn
5S0755KORD▼ Dn
A30753CLEARED TO KORD VIA MRBIL1 JARPA RSK HGO MCK SCB FOD MYRRS FYTTE7. SQUAWK 6272.▲ Up
2S0752KPHX▼ Dn
Q00642[LINK ACK]▲ Up
Q00642[LINK TEST]▼ Dn


AIRCRAFT HISTORY
FLIGHT DATE FLIGHT NO. ORIGIN DESTINATION CLEARED ROUTE BLOCK TIME FLIGHT TIME FUEL USED PILOT
2022-06-03AAL5110KORD KBZN KORD MYKIE MONNY IANNA FSD DPR SUBKY LVM BZN LVM RW302.8 hrs2.6 hrs38,294 lbPete L.
2021-07-11AAL1969KPHX KORD KPHX SPRKY GOALY POCCK MRBIL YOTES JARPA MYRRS SAAYY BENNR JBAGS BHAWK STNLE CUUPP CHMPN CLSBY FYTTE MOTRR COGSS MADII SOOLU KURKK VULCN HIMGO RRUDA RW10C3.3 hrs3 hrs43,818 lbGeorge
2021-05-23AAL5226KRDU KPHX KRDU CATAR WLFFF SHPRD VXV ARG IFI ABQ ZUN DOJOE SLIDR TINIZ PAYSO EAGUL HOMRR BOHTX GEENO QUENY HINEY OBASE JAMIL RW084.1 hrs3.8 hrs55,008 lbPete L.
2021-05-21AAL5826KSJC KRDU KSJC 30R18 SUNOL LIN OAL ILC MLF SAKES JNC GLENO DBL MCI DRIVL WELTS STL BOSIE ELIOE IMPEL IIU GSO HEAVE RW05L4.7 hrs4.5 hrs63,352 lbPete L.
2021-04-14AAL2834KDFW KSJC KDFW HAZKL TULUY HUNNT TYGGR DBLSS HRPER HULZE FTI ESPAN RGINA RSK BCE ILC KNGRY GYLET STUBL RAZRR OUCHH NIKKT GOTEE SHIKK TRCOT GGUGL GAARY EDMND JESEN HITIR RW12R3.5 hrs3.1 hrs45,596 lbPete L.
2021-03-25AAL9717EGLL KDFW EGLL CPT KENET UGNUS LANON BADSI ABLIN IRKUM LIPGO PIKIL 5620N 5630N 5440N 5150N ALLRY TOPPS CABCI NIPPY SYR GEE JHW ROD TTH FAM RZC JONEZ KDFW10.2 hrs10 hrs147,197 lbRyan Syferd